EGLCEGFF

Guest
Details From EGLC - London City
To EGFF - Cardiff
Flight Number -
Tags generated
Created
Modified
Stats Distance 127 nm / 236 km
Max Altitude 22,300 ft / 6,797 m
Waypoints 3
Social Downloads 2
Likes 0
Share VATSIM

Download

Looking for another format? Having issues loading an existing format? Contact us
Advertisement - Login to hide

Notes

Basic altitude profile: - Ascent Rate: 1500ft/min - Ascent Speed: 150kts - Cruise Altitude: 25000ft - Cruise Speed: 170kts - Descent Rate: 1000ft/min - Descent Speed: 140kts

Route

EGLC NORRY EGFF

ID Type Via Altitude Latitude Longitude Leg Dist Tot Dist Heading (true) Name
O EGLC APT - 0 ft / 0 m 51.50523˚ 0.05518˚ - 0 nm - London City
NORRY FIX - 22,300 ft / 6,797 m 51.47972˚ -1.12333˚ 44 nm 44 nm 268° / 268° -
O EGFF APT - 0 ft / 0 m 51.39656˚ -3.34320˚ 83 nm 127 nm 267° / 266° Cardiff

Altitude Profile

Advertisement - Login to hide

EGLC

Details ICAO EGLC (LCY)
Name London City
Region United Kingdom
Timezone Europe/London (UTC+0.0)
Stats Elevation 19 ft / 6 m (AMSL)
Location 51.505231° 0.055175°
Runways 1
Magnetic Variation 0.384° W

METAR

EGLC 141720Z AUTO 24009KT 210V280 9999 NCD 05/01 Q0988

Decode

TAF

Not found

Departure Runways

ID Width Length Bearing (true) Bearing (mag) Surface Threshold Offset Overrun Length
09 98 ft / 30 m 4,931 ft / 1,503 m 92.89° 93.27° Concrete 322 ft / 98 m 164 ft / 50 m
27 98 ft / 30 m 4,931 ft / 1,503 m 272.91° 273.29° Concrete 243 ft / 74 m 279 ft / 85 m

EGFF

Details ICAO EGFF (CWL)
Name Cardiff
Region United Kingdom
Timezone Europe/London (UTC+0.0)
Stats Elevation 220 ft / 67 m (AMSL)
Location 51.396565° -3.343202°
Runways 1
Magnetic Variation 1.578° W

METAR

EGFF 141720Z AUTO 29013G25KT 9999 -RA SCT022/// BKN040/// //////TCU 05/03 Q0987 RESHRA

Decode

TAF

TAF AMD EGFF 141223Z 1412/1512 26015KT 9999 SCT025 TEMPO 1412/1504 28020G30KT 6000 SHRA BKN010 PROB30 TEMPO 1412/1504 30024G40KT 4000 +SHRAGS BKN005 BKN010CB BECMG 1503/1506 32012KT PROB30 TEMPO 1506/1512 31018G30KT

Decode

Destination Runways

ID Width Length Bearing (true) Bearing (mag) Surface Threshold Offset Overrun Length
12 131 ft / 40 m 7,831 ft / 2,387 m 116.82° 118.40° Asphalt 715 ft / 218 m 0 ft / 0 m
30 131 ft / 40 m 7,831 ft / 2,387 m 296.84° 298.42° Asphalt 594 ft / 181 m 0 ft / 0 m

Approach Navaids

Runway Type Ident Frequency Range Bearing (true) Bearing (mag) Slope Elevation
12 Localiser ICDF 110.70 MHz 18 nm / 33 km 116.85° 118.43° - 220 ft / 67 m (AMSL)
12 Glidescope ICDF 110.70 MHz 10 nm / 19 km 116.83° 118.41° 3.00° 220 ft / 67 m (AMSL)
12 DME ICDF 110.70 MHz 18 nm / 33 km - - - 281 ft / 86 m (AMSL)
30 Localiser ICWA 110.70 MHz 18 nm / 33 km 296.82° 298.40° - 220 ft / 67 m (AMSL)
30 Glidescope ICWA 110.70 MHz 10 nm / 19 km 296.83° 298.41° 3.00° 220 ft / 67 m (AMSL)
30 DME ICWA 110.70 MHz 18 nm / 33 km - - - 220 ft / 67 m (AMSL)

Popular Alternatives